Time;durP1;ratioP1;P1;durP2;ratioP2;P2;SDS_P1;SDS_P2;PMS_P1;PMS_P2;Temp;Humidity;BMP_temperature;BMP_pressure;BME280_temperature;BME280_humidity;BME280_pressure;Samples;Min_cycle;Max_cycle;Signal;HPM_P1;HPM_P2
2022/12/24 00:00:05;;;;;;;;;;;4.10;99.90;;;;;;5110712;28;19976;-76
2022/12/24 00:02:31;;;;;;;;;;;4.00;99.90;;;;;;5108293;28;20218;-76
2022/12/24 00:04:56;;;;;;;;;;;3.80;99.90;;;;;;5106601;28;20484;-76
2022/12/24 00:07:24;;;;;;;;;;;4.10;99.90;;;;;;5105362;28;19904;-76
2022/12/24 00:09:50;;;;;;;;;;;3.80;99.90;;;;;;5106023;28;20313;-76
2022/12/24 00:12:16;;;;;;;;;;;3.60;99.90;;;;;;5105367;28;19943;-75
2022/12/24 00:14:42;;;;;;;;;;;4.70;99.90;;;;;;5105891;28;20428;-76
2022/12/24 00:17:09;;;;;;;;;;;6.10;99.90;;;;;;5108742;28;19904;-75
2022/12/24 00:19:38;;;;;;;;;;;4.40;99.90;;;;;;5089945;28;19927;-76
2022/12/24 00:22:09;;;;;;;;;;;4.20;99.90;;;;;;5108170;28;20114;-76
2022/12/24 00:24:35;;;;;;;;;;;2.50;99.90;;;;;;5090485;28;19927;-77
2022/12/24 00:27:02;;;;;;;;;;;4.50;99.90;;;;;;5109104;28;20375;-75
2022/12/24 00:29:28;;;;;;;;;;;4.70;99.90;;;;;;5090866;28;19929;-75
2022/12/24 00:31:53;;;;;;;;;;;2.20;99.90;;;;;;5107402;28;19917;-76
2022/12/24 00:34:19;;;;;;;;;;;4.60;99.90;;;;;;5107057;28;20369;-76
2022/12/24 00:36:47;;;;;;;;;;;5.00;99.90;;;;;;5108647;28;20473;-76
2022/12/24 00:39:13;;;;;;;;;;;4.50;99.90;;;;;;5108380;28;20256;-76
2022/12/24 00:41:40;;;;;;;;;;;4.80;99.90;;;;;;5108943;28;20029;-76
2022/12/24 00:44:10;;;;;;;;;;;4.60;99.90;;;;;;5089745;28;20150;-76
2022/12/24 00:46:37;;;;;;;;;;;4.60;99.90;;;;;;5108142;28;19914;-76
2022/12/24 00:49:04;;;;;;;;;;;5.10;99.90;;;;;;5105395;28;20424;-76
2022/12/24 00:51:29;;;;;;;;;;;4.50;99.90;;;;;;5106509;28;19911;-76
2022/12/24 00:53:55;;;;;;;;;;;4.60;99.90;;;;;;5105592;28;20096;-76
2022/12/24 00:56:21;;;;;;;;;;;4.70;99.90;;;;;;5108152;28;19930;-76
2022/12/24 00:58:46;;;;;;;;;;;4.70;99.90;;;;;;5108097;28;19930;-76
2022/12/24 01:01:14;;;;;;;;;;;8.00;99.90;;;;;;5107322;28;19904;-76
2022/12/24 01:03:41;;;;;;;;;;;4.70;99.90;;;;;;5107461;28;19904;-76
2022/12/24 01:06:08;;;;;;;;;;;4.90;99.90;;;;;;5089775;28;20301;-75
2022/12/24 01:08:35;;;;;;;;;;;5.20;99.90;;;;;;5107196;28;20218;-76
2022/12/24 01:11:02;;;;;;;;;;;5.50;99.90;;;;;;5104509;28;20026;-76
2022/12/24 01:13:27;;;;;;;;;;;4.70;99.90;;;;;;5105192;28;19911;-75
2022/12/24 01:15:54;;;;;;;;;;;5.00;99.90;;;;;;5105393;28;19907;-75
2022/12/24 01:18:19;;;;;;;;;;;5.00;99.90;;;;;;5104018;28;20301;-75
2022/12/24 01:20:53;;;;;;;;;;;3.60;99.90;;;;;;5085630;28;20369;-75
2022/12/24 01:23:19;;;;;;;;;;;5.40;99.90;;;;;;5105334;28;19907;-75
2022/12/24 01:25:45;;;;;;;;;;;3.70;99.90;;;;;;5084175;28;19904;-76
2022/12/24 01:28:10;;;;;;;;;;;4.80;99.90;;;;;;5103498;28;19908;-76
2022/12/24 01:30:36;;;;;;;;;;;2.40;99.90;;;;;;5105081;28;20024;-76
2022/12/24 01:33:02;;;;;;;;;;;2.10;99.90;;;;;;5104048;28;19919;-75
2022/12/24 01:35:27;;;;;;;;;;;4.70;99.90;;;;;;5104274;28;19938;-76
2022/12/24 01:37:53;;;;;;;;;;;4.80;99.90;;;;;;5104299;28;19939;-76
2022/12/24 01:43:22;;;;;;;;;;;5.00;99.90;;;;;;5101903;28;20100;-76
2022/12/24 01:45:52;;;;;;;;;;;5.30;99.90;;;;;;5103731;28;19904;-76
2022/12/24 01:48:26;;;;;;;;;;;5.10;99.90;;;;;;5108652;28;19914;-76
2022/12/24 01:50:56;;;;;;;;;;;5.40;99.90;;;;;;5109171;28;19907;-76
2022/12/24 01:53:29;;;;;;;;;;;5.00;99.90;;;;;;5109855;28;19911;-76
2022/12/24 01:55:54;;;;;;;;;;;7.30;99.90;;;;;;5090331;28;19911;-76
2022/12/24 01:58:23;;;;;;;;;;;5.90;99.90;;;;;;5091358;28;19929;-76
2022/12/24 02:00:51;;;;;;;;;;;5.70;99.90;;;;;;5108288;28;20089;-76
2022/12/24 02:03:25;;;;;;;;;;;5.20;99.90;;;;;;5093927;28;19904;-76
2022/12/24 02:06:14;;;;;;;;;;;5.30;99.90;;;;;;5109044;28;19907;-76
2022/12/24 02:08:40;;;;;;;;;;;5.20;99.90;;;;;;5088802;28;19907;-76
2022/12/24 02:11:16;;;;;;;;;;;5.20;99.90;;;;;;5108248;28;20065;-76
2022/12/24 02:13:43;;;;;;;;;;;4.90;99.90;;;;;;5091314;28;20400;-76
2022/12/24 02:16:28;;;;;;;;;;;6.10;99.90;;;;;;5106219;28;20219;-76
2022/12/24 02:18:59;;;;;;;;;;;3.80;99.90;;;;;;5089279;28;20153;-75
2022/12/24 02:21:26;;;;;;;;;;;5.00;99.90;;;;;;5108486;28;20055;-75
2022/12/24 02:23:52;;;;;;;;;;;5.20;99.90;;;;;;5107755;28;19904;-76
2022/12/24 02:26:17;;;;;;;;;;;5.80;99.90;;;;;;5089856;28;20300;-76
2022/12/24 02:28:43;;;;;;;;;;;5.30;99.90;;;;;;5108965;28;20223;-75
2022/12/24 02:31:17;;;;;;;;;;;5.10;99.90;;;;;;5109773;28;20011;-76
2022/12/24 02:33:48;;;;;;;;;;;5.20;99.90;;;;;;5106217;28;20104;-76
2022/12/24 02:36:17;;;;;;;;;;;5.30;99.90;;;;;;5106953;28;19904;-75
2022/12/24 02:38:50;;;;;;;;;;;5.20;99.90;;;;;;5087944;28;20158;-75
2022/12/24 02:41:22;;;;;;;;;;;2.90;99.90;;;;;;5107509;28;19908;-76
2022/12/24 02:43:49;;;;;;;;;;;5.10;99.90;;;;;;5111549;28;19907;-76
2022/12/24 02:46:25;;;;;;;;;;;5.30;99.90;;;;;;5108212;28;19903;-76
2022/12/24 02:48:51;;;;;;;;;;;5.40;99.90;;;;;;5107076;28;19915;-75
2022/12/24 02:51:21;;;;;;;;;;;5.00;99.90;;;;;;5107755;28;19904;-76
2022/12/24 02:53:46;;;;;;;;;;;5.00;99.90;;;;;;5107231;28;19911;-75
2022/12/24 02:56:24;;;;;;;;;;;5.40;99.90;;;;;;5092032;28;19915;-75
2022/12/24 02:59:08;;;;;;;;;;;5.20;99.90;;;;;;5114394;28;19939;-76
2022/12/24 03:01:39;;;;;;;;;;;5.60;99.90;;;;;;5108329;28;19904;-75
2022/12/24 03:04:38;;;;;;;;;;;4.90;99.90;;;;;;5106270;28;19998;-75
2022/12/24 03:07:06;;;;;;;;;;;4.10;99.90;;;;;;5088137;28;20006;-75
2022/12/24 03:09:38;;;;;;;;;;;5.40;99.90;;;;;;5109114;28;19929;-76
2022/12/24 03:12:29;;;;;;;;;;;4.40;99.90;;;;;;5108678;28;19917;-75
2022/12/24 03:14:55;;;;;;;;;;;2.20;99.90;;;;;;5096162;28;19937;-75
2022/12/24 03:17:23;;;;;;;;;;;4.80;99.90;;;;;;5090667;28;19998;-76
2022/12/24 03:19:49;;;;;;;;;;;5.70;99.90;;;;;;5106038;28;19903;-76
2022/12/24 03:22:17;;;;;;;;;;;4.90;99.90;;;;;;5107520;28;19964;-75
2022/12/24 03:24:42;;;;;;;;;;;4.60;99.90;;;;;;5106293;28;19933;-75
2022/12/24 03:27:08;;;;;;;;;;;4.60;99.90;;;;;;5105952;28;19903;-75
2022/12/24 03:29:34;;;;;;;;;;;4.60;99.90;;;;;;5108981;28;20310;-76
2022/12/24 03:32:02;;;;;;;;;;;4.90;99.90;;;;;;5107499;28;20438;-76
2022/12/24 03:34:27;;;;;;;;;;;1.90;99.90;;;;;;5106860;28;19999;-75
2022/12/24 03:36:53;;;;;;;;;;;4.80;99.90;;;;;;5089457;28;19951;-75
2022/12/24 03:39:19;;;;;;;;;;;5.10;99.90;;;;;;5106380;28;19919;-75
2022/12/24 03:41:44;;;;;;;;;;;4.80;99.90;;;;;;5106329;28;20345;-76
2022/12/24 03:44:10;;;;;;;;;;;4.90;99.90;;;;;;5108808;28;19915;-76
2022/12/24 03:46:37;;;;;;;;;;;4.90;99.90;;;;;;5089791;28;20411;-76
2022/12/24 03:49:03;;;;;;;;;;;4.50;99.90;;;;;;5107921;28;19904;-75
2022/12/24 03:51:29;;;;;;;;;;;4.90;99.90;;;;;;5109022;28;20293;-76
2022/12/24 03:53:55;;;;;;;;;;;5.10;99.90;;;;;;5090840;28;19922;-75
2022/12/24 03:56:21;;;;;;;;;;;3.60;99.90;;;;;;5108165;28;20500;-75
2022/12/24 03:58:47;;;;;;;;;;;5.00;99.90;;;;;;5105422;28;19972;-76
2022/12/24 04:01:14;;;;;;;;;;;1.90;99.90;;;;;;5109855;28;19903;-76
2022/12/24 04:03:39;;;;;;;;;;;4.70;99.90;;;;;;5106733;28;20186;-76
2022/12/24 04:06:23;;;;;;;;;;;4.80;99.90;;;;;;5110944;28;19904;-75
2022/12/24 04:08:49;;;;;;;;;;;5.10;99.90;;;;;;5086730;28;20010;-75
2022/12/24 04:11:15;;;;;;;;;;;4.90;99.90;;;;;;5088831;28;20234;-76
2022/12/24 04:13:41;;;;;;;;;;;4.90;99.90;;;;;;5107762;28;19972;-75
2022/12/24 04:16:10;;;;;;;;;;;5.10;99.90;;;;;;5108736;28;20357;-75
2022/12/24 04:18:36;;;;;;;;;;;4.90;99.90;;;;;;5109874;28;19904;-75
2022/12/24 04:21:03;;;;;;;;;;;5.30;99.90;;;;;;5107345;28;19907;-76
2022/12/24 04:23:30;;;;;;;;;;;4.90;99.90;;;;;;5108924;28;19910;-76
2022/12/24 04:25:58;;;;;;;;;;;4.90;99.90;;;;;;5108336;28;20213;-75
2022/12/24 04:28:23;;;;;;;;;;;4.90;99.90;;;;;;5108101;28;19968;-76
2022/12/24 04:30:49;;;;;;;;;;;4.90;99.90;;;;;;5107326;28;19929;-75
2022/12/24 04:33:15;;;;;;;;;;;4.80;99.90;;;;;;5109511;28;19908;-76
2022/12/24 04:35:40;;;;;;;;;;;4.90;99.90;;;;;;5092551;28;20865;-76
2022/12/24 04:38:06;;;;;;;;;;;4.70;99.90;;;;;;5115368;28;19934;-76
2022/12/24 04:40:32;;;;;;;;;;;4.80;99.90;;;;;;5114026;28;20313;-76
2022/12/24 04:42:58;;;;;;;;;;;4.80;99.90;;;;;;5113950;28;19908;-78
2022/12/24 04:45:24;;;;;;;;;;;4.80;99.90;;;;;;5095006;28;19963;-75
2022/12/24 04:47:49;;;;;;;;;;;4.80;99.90;;;;;;5108430;28;20357;-76
2022/12/24 04:50:15;;;;;;;;;;;4.80;99.90;;;;;;5110461;28;19994;-76
2022/12/24 04:52:40;;;;;;;;;;;4.80;99.90;;;;;;5109967;28;19911;-76
2022/12/24 04:55:06;;;;;;;;;;;4.80;99.90;;;;;;5112697;27;19949;-75
2022/12/24 04:57:34;;;;;;;;;;;4.90;99.90;;;;;;5113531;28;20006;-75
2022/12/24 05:00:00;;;;;;;;;;;4.90;99.90;;;;;;5096576;28;19929;-75
2022/12/24 05:02:26;;;;;;;;;;;5.00;99.90;;;;;;5113193;28;19911;-76
2022/12/24 05:04:52;;;;;;;;;;;5.00;99.90;;;;;;5111361;28;19903;-75
2022/12/24 05:07:17;;;;;;;;;;;5.00;99.90;;;;;;5091479;28;19908;-75
2022/12/24 05:09:46;;;;;;;;;;;5.20;99.90;;;;;;5108513;28;19911;-76
2022/12/24 05:12:11;;;;;;;;;;;5.10;99.90;;;;;;5108669;28;19969;-75
2022/12/24 05:14:39;;;;;;;;;;;5.20;99.90;;;;;;5109414;28;19915;-75
2022/12/24 05:17:04;;;;;;;;;;;5.40;99.90;;;;;;5093062;28;19903;-76
2022/12/24 05:19:30;;;;;;;;;;;4.10;99.90;;;;;;5109871;28;19910;-76
2022/12/24 05:27:26;;;;;;;;;;;5.20;99.90;;;;;;5113728;28;19950;-76
2022/12/24 05:29:51;;;;;;;;;;;5.20;99.90;;;;;;5115329;28;19904;-75
2022/12/24 05:32:19;;;;;;;;;;;5.10;99.90;;;;;;5114453;28;19996;-75
2022/12/24 05:34:44;;;;;;;;;;;5.00;99.90;;;;;;5115438;28;19943;-75
2022/12/24 05:37:10;;;;;;;;;;;5.00;99.90;;;;;;5113765;28;20325;-75
2022/12/24 05:39:35;;;;;;;;;;;5.10;99.90;;;;;;5094854;28;19904;-75
2022/12/24 05:42:01;;;;;;;;;;;5.00;99.90;;;;;;5113698;28;19911;-76
2022/12/24 05:44:26;;;;;;;;;;;5.00;99.90;;;;;;5113564;28;19907;-76
2022/12/24 05:46:52;;;;;;;;;;;5.90;99.90;;;;;;5116989;28;20413;-75
2022/12/24 05:49:19;;;;;;;;;;;5.00;99.90;;;;;;5100050;28;19904;-75
2022/12/24 05:51:45;;;;;;;;;;;5.40;99.90;;;;;;5118279;28;19908;-76
2022/12/24 05:54:10;;;;;;;;;;;4.80;99.90;;;;;;5112519;28;20112;-75
2022/12/24 05:56:36;;;;;;;;;;;4.80;99.90;;;;;;5095448;28;20294;-75
2022/12/24 05:59:02;;;;;;;;;;;5.20;99.90;;;;;;5110129;28;19911;-75
2022/12/24 06:01:27;;;;;;;;;;;4.60;99.90;;;;;;5111155;28;20248;-75
2022/12/24 06:03:53;;;;;;;;;;;5.00;99.90;;;;;;5110179;28;20368;-75
2022/12/24 06:06:20;;;;;;;;;;;4.90;99.90;;;;;;5108256;28;19904;-75
2022/12/24 06:08:47;;;;;;;;;;;4.90;99.90;;;;;;5109482;28;19927;-75
2022/12/24 06:11:13;;;;;;;;;;;5.00;99.90;;;;;;5109372;28;19914;-76
2022/12/24 06:13:39;;;;;;;;;;;4.80;99.90;;;;;;5109474;28;19922;-76
2022/12/24 06:16:05;;;;;;;;;;;5.10;99.90;;;;;;5110156;28;19929;-75
2022/12/24 06:18:32;;;;;;;;;;;5.20;99.90;;;;;;5091787;28;19926;-76
2022/12/24 06:20:59;;;;;;;;;;;5.20;99.90;;;;;;5110219;28;20412;-76
2022/12/24 06:23:25;;;;;;;;;;;4.60;99.90;;;;;;5108452;28;19928;-75
2022/12/24 06:25:51;;;;;;;;;;;4.60;99.90;;;;;;5090977;28;20204;-76
2022/12/24 06:28:17;;;;;;;;;;;4.30;99.90;;;;;;5108916;28;19908;-75
2022/12/24 06:30:49;;;;;;;;;;;4.80;99.90;;;;;;5107780;28;19907;-75
2022/12/24 06:33:15;;;;;;;;;;;4.40;99.90;;;;;;5107299;28;20218;-75
2022/12/24 06:35:41;;;;;;;;;;;4.80;99.90;;;;;;5110506;28;20300;-75
2022/12/24 06:38:06;;;;;;;;;;;4.50;99.90;;;;;;5109590;28;20457;-75
2022/12/24 06:40:33;;;;;;;;;;;4.90;99.90;;;;;;5113228;28;20335;-75
2022/12/24 06:42:59;;;;;;;;;;;5.10;99.90;;;;;;5113900;28;20037;-78
2022/12/24 06:45:25;;;;;;;;;;;5.20;99.90;;;;;;5115671;28;19903;-76
2022/12/24 06:47:50;;;;;;;;;;;5.00;99.90;;;;;;5112343;28;20424;-76
2022/12/24 06:50:16;;;;;;;;;;;5.00;99.90;;;;;;5111683;28;20377;-76
2022/12/24 06:52:41;;;;;;;;;;;5.40;99.90;;;;;;5112362;28;20324;-77
2022/12/24 06:55:08;;;;;;;;;;;5.40;99.90;;;;;;5116434;28;19915;-76
2022/12/24 06:57:35;;;;;;;;;;;5.30;99.90;;;;;;5094534;28;19918;-75
2022/12/24 07:00:00;;;;;;;;;;;5.20;99.90;;;;;;5112718;28;19907;-75
2022/12/24 07:02:26;;;;;;;;;;;3.70;99.90;;;;;;5110243;28;19976;-75
2022/12/24 07:04:53;;;;;;;;;;;5.20;99.90;;;;;;5109435;28;20122;-75
2022/12/24 07:07:18;;;;;;;;;;;5.30;99.90;;;;;;5113771;28;19904;-76
2022/12/24 07:09:44;;;;;;;;;;;5.40;99.90;;;;;;5110890;28;19900;-76
2022/12/24 07:12:10;;;;;;;;;;;5.40;99.90;;;;;;5110692;28;20152;-76
2022/12/24 07:14:37;;;;;;;;;;;5.50;99.90;;;;;;5111282;28;20268;-76
2022/12/24 07:17:02;;;;;;;;;;;5.50;99.90;;;;;;5113048;28;19903;-76
2022/12/24 07:19:31;;;;;;;;;;;5.60;99.90;;;;;;5113589;28;19910;-76
2022/12/24 07:21:57;;;;;;;;;;;5.60;99.90;;;;;;5108958;28;19907;-76
2022/12/24 07:24:26;;;;;;;;;;;5.70;99.90;;;;;;5108581;28;19979;-76
2022/12/24 07:26:55;;;;;;;;;;;5.80;99.90;;;;;;5109483;28;20221;-75
2022/12/24 07:29:21;;;;;;;;;;;5.80;99.90;;;;;;5108186;28;19919;-76
2022/12/24 07:31:47;;;;;;;;;;;5.90;99.90;;;;;;5109669;28;19904;-76
2022/12/24 07:34:15;;;;;;;;;;;6.10;99.90;;;;;;5091942;28;19912;-75
2022/12/24 07:36:41;;;;;;;;;;;5.90;99.90;;;;;;5109351;28;19969;-75
2022/12/24 07:39:06;;;;;;;;;;;5.90;99.90;;;;;;5107868;28;19904;-76
2022/12/24 07:41:33;;;;;;;;;;;5.90;99.90;;;;;;5090785;28;19954;-75
2022/12/24 07:43:59;;;;;;;;;;;5.90;99.90;;;;;;5111590;28;19911;-76
2022/12/24 07:46:24;;;;;;;;;;;5.90;99.90;;;;;;5116192;28;19903;-76
2022/12/24 07:48:50;;;;;;;;;;;6.00;99.90;;;;;;5113577;28;19924;-76
2022/12/24 07:51:16;;;;;;;;;;;6.10;99.90;;;;;;5115248;28;19913;-76
2022/12/24 07:53:46;;;;;;;;;;;7.50;99.90;;;;;;5111371;28;20207;-75
2022/12/24 07:56:15;;;;;;;;;;;6.40;99.90;;;;;;5093526;28;19937;-76
2022/12/24 07:58:41;;;;;;;;;;;6.50;99.90;;;;;;5112530;28;20150;-75
2022/12/24 08:01:07;;;;;;;;;;;6.60;99.90;;;;;;5098676;28;19935;-76
2022/12/24 08:03:36;;;;;;;;;;;6.70;99.90;;;;;;5110265;28;19910;-75
2022/12/24 08:06:02;;;;;;;;;;;6.80;99.90;;;;;;5109213;28;19919;-76
2022/12/24 08:08:28;;;;;;;;;;;6.60;99.90;;;;;;5111909;28;19903;-75
2022/12/24 08:11:04;;;;;;;;;;;6.70;99.90;;;;;;5114340;28;19913;-75
2022/12/24 08:13:32;;;;;;;;;;;6.80;99.90;;;;;;5113962;28;20321;-76
2022/12/24 08:16:00;;;;;;;;;;;6.70;99.90;;;;;;5118945;22;19947;-75
2022/12/24 08:18:25;;;;;;;;;;;6.80;99.90;;;;;;5092695;28;20309;-77
2022/12/24 08:20:51;;;;;;;;;;;6.90;99.90;;;;;;5091191;28;20460;-76
2022/12/24 08:23:17;;;;;;;;;;;7.00;99.90;;;;;;5073046;28;20475;-77
2022/12/24 08:25:43;;;;;;;;;;;4.70;99.90;;;;;;5073554;28;19935;-76
2022/12/24 08:28:09;;;;;;;;;;;7.00;99.90;;;;;;5091247;28;19911;-75
2022/12/24 08:30:35;;;;;;;;;;;7.00;99.90;;;;;;5089955;28;19904;-74
2022/12/24 08:33:00;;;;;;;;;;;7.10;99.90;;;;;;5092604;28;20546;-73
2022/12/24 08:35:26;;;;;;;;;;;7.10;99.90;;;;;;5077258;28;19908;-75
2022/12/24 08:37:51;;;;;;;;;;;7.20;99.90;;;;;;5076385;28;20669;-75
2022/12/24 08:40:17;;;;;;;;;;;7.20;99.90;;;;;;5094479;28;20237;-77
2022/12/24 08:42:43;;;;;;;;;;;7.20;99.90;;;;;;5091588;28;19911;-74
2022/12/24 08:45:10;;;;;;;;;;;7.30;99.90;;;;;;5084230;28;20360;-75
2022/12/24 08:47:36;;;;;;;;;;;7.30;99.90;;;;;;5068595;28;19926;-74
2022/12/24 08:50:02;;;;;;;;;;;7.40;99.90;;;;;;5086615;28;19938;-74
2022/12/24 08:52:27;;;;;;;;;;;7.50;99.90;;;;;;5084681;28;19911;-74
2022/12/24 08:54:53;;;;;;;;;;;7.60;99.90;;;;;;5064072;28;20558;-75
2022/12/24 08:57:19;;;;;;;;;;;7.60;99.90;;;;;;5084585;28;19904;-75
2022/12/24 08:59:45;;;;;;;;;;;7.70;99.90;;;;;;5085683;28;19994;-74
2022/12/24 09:02:10;;;;;;;;;;;7.80;99.90;;;;;;5085471;28;20320;-75
2022/12/24 09:04:38;;;;;;;;;;;7.70;99.90;;;;;;5089127;28;20559;-75
2022/12/24 09:07:04;;;;;;;;;;;7.70;99.90;;;;;;5067715;28;20405;-75
2022/12/24 09:09:30;;;;;;;;;;;7.60;99.90;;;;;;5087413;28;20103;-75
2022/12/24 09:11:56;;;;;;;;;;;4.90;99.90;;;;;;5068951;28;20461;-75
2022/12/24 09:14:22;;;;;;;;;;;7.90;99.90;;;;;;5091810;28;19919;-73
2022/12/24 09:16:48;;;;;;;;;;;8.20;99.90;;;;;;5090897;28;20135;-74
2022/12/24 09:19:13;;;;;;;;;;;8.00;99.90;;;;;;5095828;28;19904;-75
2022/12/24 09:21:39;;;;;;;;;;;8.10;99.90;;;;;;5093408;28;19973;-76
2022/12/24 09:24:06;;;;;;;;;;;8.20;99.90;;;;;;5089440;28;19951;-75
2022/12/24 09:26:31;;;;;;;;;;;8.30;99.90;;;;;;5089468;28;19919;-75
2022/12/24 09:29:00;;;;;;;;;;;8.40;99.90;;;;;;5097193;28;19900;-75
2022/12/24 09:31:27;;;;;;;;;;;8.50;99.90;;;;;;5095755;28;19940;-75
2022/12/24 09:33:53;;;;;;;;;;;8.50;99.90;;;;;;5092005;28;20473;-75
2022/12/24 09:36:19;;;;;;;;;;;6.70;99.90;;;;;;5094637;28;19900;-75
2022/12/24 09:38:45;;;;;;;;;;;8.50;99.90;;;;;;5098193;28;19900;-75
2022/12/24 09:41:29;;;;;;;;;;;8.50;99.90;;;;;;5097509;28;19900;-75
2022/12/24 09:43:58;;;;;;;;;;;9.10;99.90;;;;;;5092622;28;19900;-75
2022/12/24 09:46:25;;;;;;;;;;;7.40;99.90;;;;;;5097227;28;20443;-76
2022/12/24 09:48:56;;;;;;;;;;;8.50;99.90;;;;;;5100185;28;19943;-76
2022/12/24 09:51:34;;;;;;;;;;;8.60;99.90;;;;;;5095767;28;20384;-76
2022/12/24 09:54:03;;;;;;;;;;;8.60;99.90;;;;;;5084437;28;19940;-75
2022/12/24 09:56:39;;;;;;;;;;;8.50;99.90;;;;;;5099886;28;19904;-76
2022/12/24 09:59:05;;;;;;;;;;;8.50;99.90;;;;;;5099462;28;19908;-77
2022/12/24 10:01:52;;;;;;;;;;;8.50;99.90;;;;;;5101128;28;20286;-77
2022/12/24 10:04:18;;;;;;;;;;;8.60;99.90;;;;;;5047051;28;19927;-75
2022/12/24 10:06:49;;;;;;;;;;;8.60;99.90;;;;;;5051144;28;19901;-76
2022/12/24 10:09:15;;;;;;;;;;;8.60;99.90;;;;;;5051467;28;19916;-75
2022/12/24 10:11:52;;;;;;;;;;;10.20;99.90;;;;;;5053383;28;19901;-75
2022/12/24 10:14:50;;;;;;;;;;;8.70;99.90;;;;;;5045757;28;19912;-76
2022/12/24 10:17:34;;;;;;;;;;;8.70;99.90;;;;;;4994027;28;19994;-75
2022/12/24 10:20:22;;;;;;;;;;;8.70;99.90;;;;;;4990547;28;19949;-77
2022/12/24 10:22:51;;;;;;;;;;;8.80;99.90;;;;;;4953447;29;19921;-74
2022/12/24 10:25:36;;;;;;;;;;;8.80;99.90;;;;;;4953772;28;19913;-75
2022/12/24 10:28:08;;;;;;;;;;;8.70;99.90;;;;;;4919663;29;19907;-77
2022/12/24 10:30:34;;;;;;;;;;;8.60;99.90;;;;;;4916724;29;19933;-75
2022/12/24 10:33:00;;;;;;;;;;;8.80;99.90;;;;;;4917983;29;19911;-75
2022/12/24 10:35:28;;;;;;;;;;;8.80;99.90;;;;;;4918878;29;19911;-75
2022/12/24 10:37:56;;;;;;;;;;;8.80;99.90;;;;;;4916762;29;19919;-74
2022/12/24 10:40:34;;;;;;;;;;;8.80;99.90;;;;;;4921787;29;20147;-77
2022/12/24 10:43:00;;;;;;;;;;;8.80;99.90;;;;;;4920231;29;20002;-76
2022/12/24 10:45:31;;;;;;;;;;;8.80;99.90;;;;;;4914717;29;19939;-75
2022/12/24 10:48:02;;;;;;;;;;;8.90;99.90;;;;;;4916447;29;20023;-74
2022/12/24 10:50:27;;;;;;;;;;;9.00;99.90;;;;;;4901853;29;20684;-74
2022/12/24 10:52:57;;;;;;;;;;;9.00;99.90;;;;;;4904729;29;19947;-75
2022/12/24 10:55:23;;;;;;;;;;;9.00;99.90;;;;;;4911532;29;20001;-74
2022/12/24 10:58:06;;;;;;;;;;;9.10;99.90;;;;;;4913204;29;19942;-74
2022/12/24 11:00:31;;;;;;;;;;;9.10;99.90;;;;;;5041449;28;19927;-74
2022/12/24 11:03:12;;;;;;;;;;;9.20;99.90;;;;;;5088828;28;19986;-74
2022/12/24 11:05:38;;;;;;;;;;;9.30;99.90;;;;;;5092199;28;19907;-74
2022/12/24 11:08:04;;;;;;;;;;;9.30;99.90;;;;;;5074519;28;19918;-74
2022/12/24 11:10:30;;;;;;;;;;;9.40;99.90;;;;;;5096334;28;19967;-75
2022/12/24 11:12:56;;;;;;;;;;;9.50;99.90;;;;;;5074795;28;20485;-75
2022/12/24 11:15:23;;;;;;;;;;;9.50;99.90;;;;;;5098021;28;19939;-74
2022/12/24 11:17:58;;;;;;;;;;;9.60;99.90;;;;;;5087201;28;19918;-74
2022/12/24 11:20:27;;;;;;;;;;;9.30;99.90;;;;;;5089237;28;19999;-74
2022/12/24 11:22:53;;;;;;;;;;;10.10;99.90;;;;;;5068686;28;20213;-74
2022/12/24 11:25:26;;;;;;;;;;;9.60;99.90;;;;;;5087664;28;19911;-74
2022/12/24 11:27:52;;;;;;;;;;;9.60;99.90;;;;;;5090693;28;19971;-74
2022/12/24 11:30:21;;;;;;;;;;;9.60;99.90;;;;;;5092506;28;19947;-74
2022/12/24 11:32:48;;;;;;;;;;;9.60;99.90;;;;;;5088035;28;19936;-74
2022/12/24 11:35:20;;;;;;;;;;;9.60;99.90;;;;;;5087969;28;19955;-74
2022/12/24 11:37:46;;;;;;;;;;;9.70;99.90;;;;;;5090851;28;20000;-74
2022/12/24 11:40:22;;;;;;;;;;;9.80;99.90;;;;;;5095175;28;19968;-73
2022/12/24 11:42:52;;;;;;;;;;;9.80;99.90;;;;;;5088322;28;19900;-74
2022/12/24 11:45:23;;;;;;;;;;;9.90;99.90;;;;;;5100079;28;19904;-74
2022/12/24 11:47:49;;;;;;;;;;;9.90;99.90;;;;;;5091899;28;19912;-75
2022/12/24 11:50:17;;;;;;;;;;;9.90;99.90;;;;;;5094809;28;19900;-74
2022/12/24 11:52:44;;;;;;;;;;;10.00;99.90;;;;;;5097096;28;19976;-74
2022/12/24 11:55:42;;;;;;;;;;;10.00;99.90;;;;;;5088473;28;19904;-74
2022/12/24 11:58:17;;;;;;;;;;;10.10;99.90;;;;;;5007904;28;19906;-73
2022/12/24 12:00:45;;;;;;;;;;;10.20;99.90;;;;;;5005194;28;19901;-74
2022/12/24 12:03:26;;;;;;;;;;;10.30;99.90;;;;;;5009360;28;19913;-74
2022/12/24 12:05:52;;;;;;;;;;;10.40;99.90;;;;;;5005908;28;19906;-74
2022/12/24 12:08:21;;;;;;;;;;;10.50;99.90;;;;;;5012864;28;19917;-74
2022/12/24 12:10:51;;;;;;;;;;;10.50;99.90;;;;;;5005265;28;20568;-75
2022/12/24 12:13:31;;;;;;;;;;;10.50;99.90;;;;;;4992641;28;19939;-74
2022/12/24 12:16:06;;;;;;;;;;;10.50;99.90;;;;;;5004108;28;20655;-74
2022/12/24 12:18:34;;;;;;;;;;;10.60;99.90;;;;;;5005041;28;19914;-73
2022/12/24 12:21:05;;;;;;;;;;;10.50;99.90;;;;;;5006781;28;19976;-74
2022/12/24 12:23:30;;;;;;;;;;;10.50;99.90;;;;;;5005362;28;19914;-74
2022/12/24 12:26:11;;;;;;;;;;;10.40;99.90;;;;;;5005356;28;19906;-74
2022/12/24 12:28:46;;;;;;;;;;;10.40;99.90;;;;;;5010612;28;19905;-75
2022/12/24 12:31:16;;;;;;;;;;;10.30;99.90;;;;;;5013724;28;19977;-74
2022/12/24 12:33:41;;;;;;;;;;;10.30;99.90;;;;;;5045765;28;19907;-73
2022/12/24 12:36:08;;;;;;;;;;;10.20;99.90;;;;;;5092268;28;20580;-73
2022/12/24 12:38:34;;;;;;;;;;;10.10;99.90;;;;;;5095815;28;19912;-74
2022/12/24 12:41:03;;;;;;;;;;;10.10;99.90;;;;;;5096547;28;19904;-74
2022/12/24 12:43:36;;;;;;;;;;;10.00;99.90;;;;;;5097157;28;20049;-75
2022/12/24 12:46:09;;;;;;;;;;;10.00;99.90;;;;;;5093169;28;19908;-74
2022/12/24 12:49:02;;;;;;;;;;;10.00;99.90;;;;;;5089942;28;19908;-75
2022/12/24 12:51:31;;;;;;;;;;;9.90;99.90;;;;;;5008093;28;20004;-74
2022/12/24 12:54:15;;;;;;;;;;;9.90;99.90;;;;;;5006830;28;19909;-74
2022/12/24 12:56:43;;;;;;;;;;;9.90;99.90;;;;;;5003732;28;19933;-74
2022/12/24 12:59:15;;;;;;;;;;;9.90;99.90;;;;;;5002975;28;19908;-75
2022/12/24 13:01:45;;;;;;;;;;;9.80;99.90;;;;;;5013392;28;20767;-76
2022/12/24 13:04:29;;;;;;;;;;;9.80;99.90;;;;;;5000014;28;19912;-74
2022/12/24 13:07:07;;;;;;;;;;;9.80;99.90;;;;;;5012377;28;19908;-75
2022/12/24 13:09:42;;;;;;;;;;;9.80;99.90;;;;;;5006239;28;19913;-74
2022/12/24 13:12:25;;;;;;;;;;;9.80;99.90;;;;;;5004434;28;19976;-75
2022/12/24 13:14:50;;;;;;;;;;;11.40;99.90;;;;;;5010219;28;19913;-75
2022/12/24 13:17:35;;;;;;;;;;;9.70;99.90;;;;;;4986771;28;19913;-76
2022/12/24 13:20:14;;;;;;;;;;;9.70;99.90;;;;;;5007575;28;19960;-76
2022/12/24 13:22:46;;;;;;;;;;;9.70;99.90;;;;;;5005220;28;19960;-75
2022/12/24 13:25:20;;;;;;;;;;;9.70;99.90;;;;;;5003418;28;19920;-76
2022/12/24 13:27:46;;;;;;;;;;;9.80;99.90;;;;;;5026110;28;19911;-74
2022/12/24 13:30:30;;;;;;;;;;;9.80;99.90;;;;;;5089870;28;19912;-74
2022/12/24 13:32:56;;;;;;;;;;;9.70;99.90;;;;;;5087941;28;19904;-75
2022/12/24 13:35:41;;;;;;;;;;;9.90;99.90;;;;;;5089984;28;19973;-74
2022/12/24 13:38:25;;;;;;;;;;;9.90;99.90;;;;;;5003378;28;19940;-75
2022/12/24 13:40:51;;;;;;;;;;;10.00;99.90;;;;;;5002427;28;19905;-76
2022/12/24 13:43:17;;;;;;;;;;;9.90;99.90;;;;;;5004236;28;19913;-76
2022/12/24 13:45:44;;;;;;;;;;;9.90;99.90;;;;;;4989884;28;20387;-76
2022/12/24 13:48:09;;;;;;;;;;;9.90;99.90;;;;;;5002189;28;19920;-76
2022/12/24 13:50:51;;;;;;;;;;;9.90;99.90;;;;;;5007413;28;19906;-76
2022/12/24 13:53:17;;;;;;;;;;;10.40;99.90;;;;;;5004429;28;19905;-76
2022/12/24 13:56:02;;;;;;;;;;;10.20;99.90;;;;;;5004751;28;19920;-76
2022/12/24 13:58:28;;;;;;;;;;;10.40;99.90;;;;;;4985349;28;19960;-73
2022/12/24 14:00:56;;;;;;;;;;;9.80;99.90;;;;;;5002971;28;19905;-75
2022/12/24 14:03:28;;;;;;;;;;;9.80;99.90;;;;;;5006633;28;20110;-76
2022/12/24 14:05:58;;;;;;;;;;;9.60;99.90;;;;;;5006164;28;19905;-76
2022/12/24 14:08:24;;;;;;;;;;;9.50;99.90;;;;;;5003207;28;19909;-75
2022/12/24 14:11:15;;;;;;;;;;;9.50;99.90;;;;;;5006094;28;19963;-75
2022/12/24 14:13:41;;;;;;;;;;;9.50;99.90;;;;;;4966334;28;19945;-75
2022/12/24 14:16:15;;;;;;;;;;;9.40;99.90;;;;;;5005216;28;19924;-76
2022/12/24 14:18:42;;;;;;;;;;;9.40;99.90;;;;;;5047547;28;20130;-76
2022/12/24 14:21:22;;;;;;;;;;;9.40;99.90;;;;;;5038443;28;19957;-77
2022/12/24 14:23:58;;;;;;;;;;;9.30;99.90;;;;;;5036405;28;19912;-76
2022/12/24 14:26:27;;;;;;;;;;;9.80;99.90;;;;;;5043404;28;19901;-75
2022/12/24 14:29:19;;;;;;;;;;;9.30;99.90;;;;;;5037659;28;19909;-78
2022/12/24 14:31:55;;;;;;;;;;;9.30;99.90;;;;;;5021146;28;19927;-74
2022/12/24 14:34:33;;;;;;;;;;;9.30;99.90;;;;;;5040542;28;19913;-74
2022/12/24 14:37:02;;;;;;;;;;;9.30;99.90;;;;;;5042497;28;19901;-75
2022/12/24 14:39:29;;;;;;;;;;;9.20;99.90;;;;;;5039105;28;19940;-75
2022/12/24 14:42:01;;;;;;;;;;;9.00;99.90;;;;;;5036976;28;19905;-73
2022/12/24 14:44:52;;;;;;;;;;;9.20;99.90;;;;;;5034635;28;20431;-76
2022/12/24 14:47:27;;;;;;;;;;;9.20;99.90;;;;;;5034853;28;19951;-74